Time;durP1;ratioP1;P1;durP2;ratioP2;P2;SDS_P1;SDS_P2;PMS_P1;PMS_P2;Temp;Humidity;BMP_temperature;BMP_pressure;BME280_temperature;BME280_humidity;BME280_pressure;Samples;Min_cycle;Max_cycle;Signal;HPM_P1;HPM_P2
2022/09/06 00:00:34;;;;;;;4.22;0.90;;;15.50;99.90;;;;;;4961113;28;20492;-93
2022/09/06 00:03:00;;;;;;;3.25;0.80;;;15.50;99.90;;;;;;4959413;28;20042;-94
2022/09/06 00:05:27;;;;;;;1.63;0.60;;;15.50;99.90;;;;;;4959255;28;20023;-94
2022/09/06 00:07:53;;;;;;;0.70;0.55;;;15.50;99.90;;;;;;4959834;28;20054;-93
2022/09/06 00:10:19;;;;;;;3.70;0.47;;;15.50;99.90;;;;;;4960119;28;20451;-92
2022/09/06 00:12:46;;;;;;;0.75;0.60;;;15.50;99.90;;;;;;4959770;28;20113;-92
2022/09/06 00:15:12;;;;;;;3.92;0.63;;;15.40;99.90;;;;;;4960238;28;20129;-94
2022/09/06 00:17:38;;;;;;;2.47;0.60;;;15.40;99.90;;;;;;4960147;28;20601;-95
2022/09/06 00:20:04;;;;;;;0.90;0.50;;;15.40;99.90;;;;;;4958055;28;20037;-94
2022/09/06 00:22:30;;;;;;;1.00;0.65;;;15.40;99.90;;;;;;4958561;28;20060;-92
2022/09/06 00:24:56;;;;;;;2.60;0.45;;;15.40;99.90;;;;;;4958986;28;20026;-93
2022/09/06 00:27:21;;;;;;;1.48;0.65;;;15.40;99.90;;;;;;4958874;28;20114;-92
2022/09/06 00:29:47;;;;;;;0.50;0.50;;;15.30;99.90;;;;;;4959179;28;20125;-93
2022/09/06 00:32:13;;;;;;;1.52;0.55;;;15.30;99.90;;;;;;4959642;28;20041;-93
2022/09/06 00:34:38;;;;;;;0.90;0.60;;;15.30;99.90;;;;;;4960640;28;20090;-92
2022/09/06 00:37:04;;;;;;;1.00;0.60;;;15.30;99.90;;;;;;4960973;28;20496;-93
2022/09/06 00:39:30;;;;;;;2.67;0.95;;;15.30;99.90;;;;;;4961824;28;20495;-93
2022/09/06 00:41:55;;;;;;;3.28;0.60;;;15.30;99.90;;;;;;4961290;28;20042;-94
2022/09/06 00:44:21;;;;;;;1.10;0.52;;;15.30;99.90;;;;;;4964805;28;20373;-95
2022/09/06 00:46:49;;;;;;;0.77;0.52;;;15.30;99.90;;;;;;4963616;28;20081;-94
2022/09/06 00:49:24;;;;;;;1.75;0.70;;;15.30;99.90;;;;;;4962553;28;20022;-96
2022/09/06 00:52:18;;;;;;;4.65;0.75;;;15.30;99.90;;;;;;4964980;28;20118;-94
2022/09/06 00:54:45;;;;;;;0.90;0.70;;;15.30;99.90;;;;;;4960574;28;20130;-93
2022/09/06 00:57:13;;;;;;;4.28;0.95;;;15.40;99.90;;;;;;4968271;28;20469;-93
2022/09/06 00:59:40;;;;;;;2.15;0.93;;;15.40;99.90;;;;;;4970216;28;20031;-95
2022/09/06 01:02:08;;;;;;;1.38;0.80;;;15.40;99.90;;;;;;4961454;28;20035;-95
2022/09/06 01:04:35;;;;;;;3.70;0.77;;;15.40;99.90;;;;;;4960468;28;20030;-94
2022/09/06 01:07:22;;;;;;;2.60;0.90;;;15.30;99.90;;;;;;4960961;28;20065;-94
2022/09/06 01:10:12;;;;;;;0.90;0.70;;;15.30;99.90;;;;;;4960751;29;20024;-95
2022/09/06 01:13:05;;;;;;;1.90;0.80;;;15.30;99.90;;;;;;4959953;29;20027;-93
2022/09/06 01:15:33;;;;;;;1.83;1.00;;;15.30;99.90;;;;;;4936130;29;20039;-94
2022/09/06 01:18:01;;;;;;;1.25;0.70;;;15.30;99.90;;;;;;4958911;29;20068;-94
2022/09/06 01:20:40;;;;;;;1.88;0.80;;;15.30;99.90;;;;;;4956948;28;20043;-95
2022/09/06 01:23:50;;;;;;;2.33;0.80;;;15.30;99.90;;;;;;4957709;29;20033;-94
2022/09/06 01:26:31;;;;;;;1.60;0.95;;;15.20;99.90;;;;;;4921498;29;20074;-95
2022/09/06 01:28:57;;;;;;;2.90;0.93;;;15.20;99.90;;;;;;4923010;29;20040;-95
2022/09/06 01:31:46;;;;;;;1.88;0.93;;;15.20;99.90;;;;;;4932741;29;20038;-94
2022/09/06 01:34:29;;;;;;;3.55;0.70;;;15.10;99.90;;;;;;4942101;29;20028;-95
2022/09/06 01:37:02;;;;;;;0.70;0.70;;;15.10;99.90;;;;;;4942913;29;20020;-94
2022/09/06 01:39:35;;;;;;;2.20;1.15;;;15.00;99.90;;;;;;4940915;29;20012;-95
2022/09/06 01:42:11;;;;;;;2.50;1.45;;;15.00;99.90;;;;;;4939932;29;20023;-95
2022/09/06 01:44:39;;;;;;;1.58;1.13;;;14.90;99.90;;;;;;4932183;29;20038;-95
2022/09/06 01:47:16;;;;;;;1.00;0.80;;;15.00;99.90;;;;;;4923651;29;20047;-94
2022/09/06 01:49:55;;;;;;;2.15;0.90;;;14.90;99.90;;;;;;4924647;29;20036;-94
2022/09/06 01:52:34;;;;;;;3.83;0.82;;;14.90;99.90;;;;;;4923337;29;20037;-94
2022/09/06 01:55:09;;;;;;;1.08;0.70;;;14.80;99.90;;;;;;4924677;29;20047;-94
2022/09/06 01:58:01;;;;;;;0.82;0.80;;;14.80;99.90;;;;;;4928063;29;20151;-96
2022/09/06 02:00:28;;;;;;;2.13;0.77;;;14.70;99.90;;;;;;4948138;29;20049;-96
2022/09/06 02:03:12;;;;;;;2.03;0.68;;;14.70;99.90;;;;;;4964552;28;20078;-96
2022/09/06 02:05:51;;;;;;;2.30;1.00;;;14.70;99.90;;;;;;4964940;29;20080;-96
2022/09/06 02:08:30;;;;;;;1.77;0.85;;;14.70;99.90;;;;;;4963934;29;20034;-95
2022/09/06 02:11:02;;;;;;;2.35;1.17;;;14.70;99.90;;;;;;4962300;29;20047;-96
2022/09/06 02:13:42;;;;;;;2.63;1.40;;;14.60;99.90;;;;;;4962824;29;20509;-95
2022/09/06 02:16:12;;;;;;;7.70;2.22;;;14.60;99.90;;;;;;4963777;29;20417;-95
2022/09/06 02:18:52;;;;;;;2.20;1.92;;;14.60;99.90;;;;;;4962728;29;20054;-95
2022/09/06 02:21:24;;;;;;;3.35;2.00;;;14.60;99.90;;;;;;4959681;29;20090;-95
2022/09/06 02:23:54;;;;;;;3.33;2.17;;;14.60;99.90;;;;;;4962495;29;20050;-94
2022/09/06 02:26:24;;;;;;;3.30;1.73;;;14.50;99.90;;;;;;4959644;29;20027;-95
2022/09/06 02:28:50;;;;;;;7.15;2.50;;;14.50;99.90;;;;;;4958772;29;20019;-95
2022/09/06 02:31:24;;;;;;;3.63;2.10;;;14.50;99.90;;;;;;4958039;29;20182;-96
2022/09/06 02:33:51;;;;;;;2.20;2.00;;;14.50;99.90;;;;;;4959645;29;20035;-96
2022/09/06 02:36:17;;;;;;;1.88;1.10;;;14.50;99.90;;;;;;4958519;28;20031;-95
2022/09/06 02:38:44;;;;;;;1.98;1.08;;;14.50;99.90;;;;;;4957848;28;20170;-95
2022/09/06 02:41:13;;;;;;;0.90;0.75;;;14.40;99.90;;;;;;4958897;28;20035;-95
2022/09/06 02:43:41;;;;;;;1.65;0.82;;;14.40;99.90;;;;;;4959538;29;20046;-95
2022/09/06 02:46:07;;;;;;;5.28;0.90;;;14.40;99.90;;;;;;4956884;28;20023;-95
2022/09/06 02:48:33;;;;;;;1.42;0.85;;;14.30;99.90;;;;;;4958301;28;20033;-95
2022/09/06 02:51:03;;;;;;;1.85;0.80;;;14.40;99.90;;;;;;4958012;28;20040;-94
2022/09/06 02:53:28;;;;;;;1.80;0.98;;;14.40;99.90;;;;;;4959775;28;20050;-94
2022/09/06 02:55:55;;;;;;;1.33;0.90;;;14.40;99.90;;;;;;4960163;28;20035;-95
2022/09/06 02:58:21;;;;;;;1.08;0.82;;;14.50;99.90;;;;;;4959388;28;20065;-95
2022/09/06 03:00:48;;;;;;;5.47;1.88;;;14.50;99.90;;;;;;4967055;29;20035;-94
2022/09/06 03:03:14;;;;;;;11.02;4.38;;;14.50;99.90;;;;;;4959734;28;20090;-95
2022/09/06 03:05:40;;;;;;;9.68;5.57;;;14.50;99.90;;;;;;4958472;28;20031;-93
2022/09/06 03:08:06;;;;;;;9.48;5.75;;;14.50;99.90;;;;;;4959622;28;20122;-96
2022/09/06 03:10:32;;;;;;;4.40;3.17;;;14.50;99.90;;;;;;4959163;28;20046;-95
2022/09/06 03:12:57;;;;;;;3.33;2.42;;;14.50;99.90;;;;;;4958857;28;20023;-95
2022/09/06 03:15:23;;;;;;;4.18;3.08;;;14.40;99.90;;;;;;4942401;29;20027;-95
2022/09/06 03:17:49;;;;;;;12.75;5.18;;;14.50;99.90;;;;;;4957298;28;20126;-95
2022/09/06 03:20:15;;;;;;;3.65;2.70;;;14.50;99.90;;;;;;4957125;28;20042;-96
2022/09/06 03:22:40;;;;;;;7.82;3.28;;;14.50;99.90;;;;;;4959435;28;20082;-95
2022/09/06 03:25:08;;;;;;;12.23;6.78;;;14.40;99.90;;;;;;4959592;28;20027;-92
2022/09/06 03:27:33;;;;;;;15.02;6.18;;;14.50;99.90;;;;;;4977960;28;20015;-95
2022/09/06 03:29:59;;;;;;;14.18;6.38;;;14.50;99.90;;;;;;4955451;29;20094;-95
2022/09/06 03:32:25;;;;;;;13.52;7.63;;;14.50;99.90;;;;;;4964563;28;20024;-95
2022/09/06 03:34:51;;;;;;;19.38;7.47;;;14.40;99.90;;;;;;4962520;28;20358;-95
2022/09/06 03:37:18;;;;;;;10.57;4.97;;;14.40;99.90;;;;;;4958323;28;20090;-95
2022/09/06 03:39:44;;;;;;;13.93;5.78;;;14.50;99.90;;;;;;4945643;29;20126;-95
2022/09/06 03:42:10;;;;;;;10.15;5.75;;;14.50;99.90;;;;;;4963756;28;20035;-95
2022/09/06 03:44:35;;;;;;;6.25;4.80;;;14.50;99.90;;;;;;4971835;28;20102;-93
2022/09/06 03:47:01;;;;;;;8.82;4.93;;;14.50;99.90;;;;;;4963434;28;20015;-92
2022/09/06 03:49:27;;;;;;;7.93;5.45;;;14.50;99.90;;;;;;4979557;28;20090;-94
2022/09/06 03:51:53;;;;;;;9.15;5.22;;;14.60;99.90;;;;;;4961404;28;20031;-93
2022/09/06 03:54:18;;;;;;;9.50;5.15;;;14.60;99.90;;;;;;4962709;28;20074;-94
2022/09/06 03:56:44;;;;;;;8.75;5.15;;;14.60;99.90;;;;;;4948198;29;20034;-94
2022/09/06 03:59:10;;;;;;;13.70;6.32;;;14.70;99.90;;;;;;4963099;28;20370;-95
2022/09/06 04:01:35;;;;;;;9.43;5.70;;;14.70;99.90;;;;;;4959875;28;20046;-95
2022/09/06 04:04:01;;;;;;;8.70;5.13;;;14.70;99.90;;;;;;4941267;29;20462;-95
2022/09/06 04:06:27;;;;;;;9.88;4.78;;;14.70;99.90;;;;;;4941626;29;20027;-94
2022/09/06 04:08:53;;;;;;;10.93;5.60;;;14.80;99.90;;;;;;4956642;28;20500;-95
2022/09/06 04:11:19;;;;;;;8.25;5.97;;;14.80;99.90;;;;;;4955959;28;20024;-93
2022/09/06 04:13:45;;;;;;;9.10;5.72;;;14.80;99.90;;;;;;4962635;28;20245;-94
2022/09/06 04:16:10;;;;;;;15.07;6.38;;;14.80;99.90;;;;;;4957053;28;20071;-95
2022/09/06 04:18:36;;;;;;;9.98;6.10;;;14.80;99.90;;;;;;4941631;29;20489;-95
2022/09/06 04:21:02;;;;;;;9.35;5.65;;;14.90;99.90;;;;;;4957967;28;20122;-94
2022/09/06 04:23:28;;;;;;;12.93;5.85;;;14.90;99.90;;;;;;4957795;28;20030;-94
2022/09/06 04:25:56;;;;;;;9.52;5.85;;;14.90;99.90;;;;;;4960393;29;20074;-95
2022/09/06 04:28:23;;;;;;;15.80;6.93;;;14.90;99.90;;;;;;4966134;28;20501;-95
2022/09/06 04:31:00;;;;;;;9.35;6.28;;;14.90;99.90;;;;;;4962838;28;20031;-94
2022/09/06 04:33:28;;;;;;;10.95;6.28;;;14.90;99.90;;;;;;4961365;29;20504;-95
2022/09/06 04:35:58;;;;;;;11.98;5.60;;;14.90;99.90;;;;;;4943439;29;20485;-96
2022/09/06 04:38:26;;;;;;;15.18;6.97;;;15.00;99.90;;;;;;4960740;29;20164;-96
2022/09/06 04:40:52;;;;;;;10.93;6.18;;;14.90;99.90;;;;;;4961552;28;20126;-96
2022/09/06 04:43:18;;;;;;;10.93;5.95;;;14.90;99.90;;;;;;4961026;28;20029;-95
2022/09/06 04:45:44;;;;;;;12.32;6.75;;;14.90;99.90;;;;;;4962879;28;20095;-96
2022/09/06 04:48:10;;;;;;;12.05;5.95;;;14.90;99.90;;;;;;4966473;28;20047;-95
2022/09/06 04:50:36;;;;;;;12.43;6.63;;;15.00;99.90;;;;;;4959815;28;20041;-94
2022/09/06 04:53:02;;;;;;;12.05;7.32;;;15.00;99.90;;;;;;4962184;28;20040;-95
2022/09/06 04:55:30;;;;;;;13.23;6.68;;;15.00;99.90;;;;;;4961398;29;20031;-95
2022/09/06 04:57:58;;;;;;;13.52;5.97;;;15.00;99.90;;;;;;4961375;28;20086;-96
2022/09/06 05:00:27;;;;;;;10.40;6.45;;;15.00;99.90;;;;;;4958390;28;20043;-95
2022/09/06 05:02:53;;;;;;;14.65;7.07;;;14.90;99.90;;;;;;4969891;29;20023;-95
2022/09/06 05:05:19;;;;;;;10.20;5.35;;;14.90;99.90;;;;;;4960261;28;20031;-95
2022/09/06 05:07:44;;;;;;;13.23;5.65;;;15.00;99.90;;;;;;4958395;28;20027;-95
2022/09/06 05:10:10;;;;;;;16.30;5.40;;;15.00;99.90;;;;;;4974383;28;20038;-93
2022/09/06 05:12:36;;;;;;;12.77;6.35;;;15.00;99.90;;;;;;4977158;28;20035;-94
2022/09/06 05:15:02;;;;;;;9.52;6.28;;;15.00;99.90;;;;;;4971393;28;20038;-95
2022/09/06 05:17:27;;;;;;;11.18;5.65;;;15.00;99.90;;;;;;4956076;28;20024;-96
2022/09/06 05:19:53;;;;;;;8.43;5.57;;;15.00;99.90;;;;;;4955872;28;20053;-95
2022/09/06 05:22:18;;;;;;;11.25;5.20;;;15.00;99.90;;;;;;4956120;28;20031;-94
2022/09/06 05:24:45;;;;;;;9.52;6.00;;;15.00;99.90;;;;;;4960737;28;20035;-95
2022/09/06 05:27:11;;;;;;;16.92;6.28;;;15.10;99.90;;;;;;4958856;28;20054;-94
2022/09/06 05:29:37;;;;;;;10.57;6.55;;;15.10;99.90;;;;;;4943109;29;20024;-95
2022/09/06 05:32:03;;;;;;;17.58;7.03;;;15.10;99.90;;;;;;4959825;28;20133;-95
2022/09/06 05:34:29;;;;;;;9.52;6.57;;;15.10;99.90;;;;;;4944128;29;20117;-95
2022/09/06 05:36:55;;;;;;;10.82;7.60;;;15.10;99.90;;;;;;4958952;28;20031;-95
2022/09/06 05:39:20;;;;;;;16.58;9.00;;;15.10;99.90;;;;;;4958988;28;20024;-95
2022/09/06 05:41:47;;;;;;;14.68;9.60;;;15.10;99.90;;;;;;4958913;28;20039;-95
2022/09/06 05:44:13;;;;;;;17.30;10.85;;;15.20;99.90;;;;;;4959216;28;20038;-95
2022/09/06 05:46:44;;;;;;;15.98;9.57;;;15.20;99.90;;;;;;4944589;29;20087;-95
2022/09/06 05:49:09;;;;;;;;;;;15.20;99.90;;;;;;4943075;29;20051;-94
2022/09/06 05:51:35;;;;;;;17.75;11.25;;;15.20;99.90;;;;;;4959871;28;19914;-95
2022/09/06 05:54:01;;;;;;;22.20;12.50;;;15.30;99.90;;;;;;4959060;28;20133;-94
2022/09/06 05:56:27;;;;;;;21.70;11.90;;;15.30;99.90;;;;;;4959004;28;20041;-95
2022/09/06 05:58:52;;;;;;;20.92;12.05;;;15.30;99.90;;;;;;4958950;28;20031;-94
2022/09/06 06:01:26;;;;;;;21.67;11.55;;;15.30;99.90;;;;;;4942798;29;20097;-93
2022/09/06 06:03:54;;;;;;;19.98;12.10;;;15.30;99.90;;;;;;4959385;29;20027;-95
2022/09/06 06:06:20;;;;;;;20.40;11.05;;;15.30;99.90;;;;;;4962616;28;20470;-95
2022/09/06 06:08:46;;;;;;;18.63;11.95;;;15.30;99.90;;;;;;4960538;28;20114;-94
2022/09/06 06:11:12;;;;;;;18.55;12.02;;;15.30;99.90;;;;;;4959081;28;20027;-95
2022/09/06 06:13:38;;;;;;;22.38;12.57;;;15.30;99.90;;;;;;4959670;28;20034;-95
2022/09/06 06:16:10;;;;;;;18.05;12.07;;;15.30;99.90;;;;;;4958748;28;20461;-95
2022/09/06 06:18:36;;;;;;;22.25;11.32;;;15.30;99.90;;;;;;4943529;29;20039;-94
2022/09/06 06:21:23;;;;;;;18.00;11.85;;;15.30;99.90;;;;;;4958201;28;20040;-94
2022/09/06 06:23:51;;;;;;;21.08;11.93;;;15.30;99.90;;;;;;4958467;28;20027;-95
2022/09/06 06:26:17;;;;;;;19.27;11.93;;;15.30;99.90;;;;;;4960812;28;20034;-94
2022/09/06 06:28:43;;;;;;;21.27;11.98;;;15.30;99.90;;;;;;4942456;29;20023;-95
2022/09/06 06:31:10;;;;;;;23.65;13.30;;;15.40;99.90;;;;;;4969396;28;20559;-95
2022/09/06 06:33:37;;;;;;;22.20;11.90;;;15.40;99.90;;;;;;4966352;28;20097;-95
2022/09/06 06:36:03;;;;;;;22.80;13.18;;;15.40;99.90;;;;;;4982146;28;20058;-94
2022/09/06 06:38:36;;;;;;;22.13;12.02;;;15.40;99.90;;;;;;4972947;28;20023;-94
2022/09/06 06:41:03;;;;;;;20.05;12.57;;;15.40;99.90;;;;;;4968542;28;20042;-93
2022/09/06 06:43:35;;;;;;;20.42;12.48;;;15.40;99.90;;;;;;4966991;28;20023;-93
2022/09/06 06:46:14;;;;;;;20.42;12.77;;;15.40;99.90;;;;;;4967960;28;20031;-92
2022/09/06 06:48:42;;;;;;;21.55;13.35;;;15.40;99.90;;;;;;4968608;28;20027;-93
2022/09/06 06:51:12;;;;;;;26.10;13.40;;;15.30;99.90;;;;;;4966117;28;20034;-93
2022/09/06 06:53:38;;;;;;;28.77;14.32;;;15.40;99.90;;;;;;4967138;28;20066;-94
2022/09/06 06:56:20;;;;;;;30.40;14.75;;;15.30;99.90;;;;;;4982524;28;20035;-89
2022/09/06 06:58:48;;;;;;;30.60;15.32;;;15.30;99.90;;;;;;4988088;28;20023;-93
2022/09/06 07:01:15;;;;;;;33.03;15.10;;;15.30;99.90;;;;;;4983598;28;20027;-92
2022/09/06 07:03:41;;;;;;;32.35;15.38;;;15.30;99.90;;;;;;4965073;28;20020;-94
2022/09/06 07:06:07;;;;;;;29.70;14.93;;;15.30;99.90;;;;;;4973150;28;20115;-94
2022/09/06 07:08:33;;;;;;;32.08;15.18;;;15.30;99.90;;;;;;4963908;28;20030;-93
2022/09/06 07:10:59;;;;;;;29.95;15.40;;;15.30;99.90;;;;;;4966661;28;20027;-93
2022/09/06 07:13:25;;;;;;;30.35;16.05;;;15.40;99.90;;;;;;4965162;28;20035;-93
2022/09/06 07:15:50;;;;;;;34.10;16.30;;;15.40;99.90;;;;;;4951405;28;20031;-93
2022/09/06 07:18:17;;;;;;;29.67;15.43;;;15.40;99.90;;;;;;4946675;28;20067;-94
2022/09/06 07:20:42;;;;;;;29.27;15.18;;;15.50;99.90;;;;;;4974942;28;20102;-93
2022/09/06 07:23:08;;;;;;;29.08;15.00;;;15.50;99.90;;;;;;4960819;28;20366;-95
2022/09/06 07:25:34;;;;;;;27.35;14.90;;;15.60;99.90;;;;;;4972090;28;20066;-94
2022/09/06 07:28:05;;;;;;;28.42;13.65;;;15.60;99.90;;;;;;4970321;28;20106;-95
2022/09/06 07:30:36;;;;;;;26.55;14.52;;;15.60;99.90;;;;;;4951506;28;20022;-93
2022/09/06 07:33:04;;;;;;;26.30;14.93;;;15.70;99.90;;;;;;4949042;28;20033;-94
2022/09/06 07:35:33;;;;;;;29.48;15.13;;;15.70;99.90;;;;;;4967275;28;20034;-94
2022/09/06 07:38:01;;;;;;;28.33;15.00;;;15.80;99.90;;;;;;4963852;28;20039;-95
2022/09/06 07:40:29;;;;;;;31.10;14.68;;;15.80;99.90;;;;;;4959396;28;20523;-94
2022/09/06 07:42:58;;;;;;;27.77;15.27;;;15.80;99.90;;;;;;4960689;28;20055;-94
2022/09/06 07:45:25;;;;;;;27.30;15.68;;;15.90;99.90;;;;;;4958458;28;20023;-94
2022/09/06 07:47:58;;;;;;;30.35;15.35;;;16.00;99.90;;;;;;4958311;29;20122;-94
2022/09/06 07:50:29;;;;;;;22.77;13.77;;;16.00;99.90;;;;;;4957063;29;20042;-95
2022/09/06 07:53:05;;;;;;;27.15;15.45;;;16.00;99.90;;;;;;4944546;29;20023;-94
2022/09/06 07:55:31;;;;;;;27.30;15.10;;;16.10;99.90;;;;;;4969821;29;20032;-95
2022/09/06 07:57:56;;;;;;;25.25;13.98;;;16.20;99.90;;;;;;4969000;28;20037;-94
2022/09/06 08:00:22;;;;;;;24.13;13.13;;;16.20;99.90;;;;;;4969705;28;20469;-95
2022/09/06 08:02:48;;;;;;;23.98;13.77;;;16.30;99.90;;;;;;4959416;28;20034;-95
2022/09/06 08:05:14;;;;;;;23.92;13.40;;;16.30;99.90;;;;;;4956305;28;20063;-94
2022/09/06 08:07:40;;;;;;;23.42;13.20;;;16.30;99.90;;;;;;4956231;29;20027;-95
2022/09/06 08:10:06;;;;;;;28.20;13.98;;;16.30;99.90;;;;;;4958163;28;20019;-94
2022/09/06 08:12:32;;;;;;;25.17;14.20;;;16.30;99.90;;;;;;4956681;29;20058;-94
2022/09/06 08:14:57;;;;;;;25.90;13.70;;;16.40;99.90;;;;;;4958942;28;20019;-94
2022/09/06 08:17:23;;;;;;;19.58;12.25;;;16.40;99.90;;;;;;4956045;28;20544;-95
2022/09/06 08:19:49;;;;;;;20.90;12.73;;;16.50;99.90;;;;;;4959459;28;20039;-95
2022/09/06 08:22:15;;;;;;;23.20;12.57;;;16.50;99.90;;;;;;4960455;28;20035;-95
2022/09/06 08:24:40;;;;;;;23.60;12.95;;;16.50;99.90;;;;;;4959313;28;20027;-93
2022/09/06 08:27:07;;;;;;;23.67;12.30;;;16.50;99.90;;;;;;4942565;29;20034;-95
2022/09/06 08:29:34;;;;;;;20.02;11.30;;;16.60;99.90;;;;;;4942044;29;20031;-94
2022/09/06 08:32:00;;;;;;;19.67;11.82;;;16.70;99.90;;;;;;4958650;28;20011;-94
2022/09/06 08:34:25;;;;;;;21.77;11.85;;;16.70;99.90;;;;;;4958034;28;20076;-95
2022/09/06 08:36:54;;;;;;;22.20;12.15;;;16.70;99.90;;;;;;4940409;29;20044;-94
2022/09/06 08:39:20;;;;;;;19.77;10.48;;;16.80;99.90;;;;;;4956230;28;20023;-94
2022/09/06 08:42:04;;;;;;;20.90;11.75;;;16.80;99.90;;;;;;4961627;28;20035;-94
2022/09/06 08:44:51;;;;;;;17.35;10.02;;;16.70;99.90;;;;;;4977492;28;20035;-93
2022/09/06 08:47:19;;;;;;;20.85;10.20;;;16.70;99.90;;;;;;4969994;29;20035;-94
2022/09/06 08:49:49;;;;;;;18.75;10.68;;;16.70;99.90;;;;;;4957134;28;20027;-93
2022/09/06 08:52:46;;;;;;;18.63;10.10;;;16.60;99.90;;;;;;4955536;29;20023;-94
2022/09/06 08:55:21;;;;;;;18.65;10.35;;;16.60;99.90;;;;;;4955835;29;20556;-93
2022/09/06 08:58:09;;;;;;;17.80;10.23;;;16.60;99.90;;;;;;4955602;28;20027;-94
2022/09/06 09:00:37;;;;;;;21.45;11.40;;;16.60;99.90;;;;;;4955243;29;20035;-93
2022/09/06 09:03:28;;;;;;;17.15;10.50;;;16.60;99.90;;;;;;4955392;28;20031;-93
2022/09/06 09:05:54;;;;;;;20.85;10.95;;;16.60;99.90;;;;;;4955909;29;20034;-93
2022/09/06 09:08:30;;;;;;;19.55;10.82;;;16.60;99.90;;;;;;4963485;28;20043;-92
2022/09/06 09:11:05;;;;;;;19.85;10.57;;;16.60;99.90;;;;;;4957029;29;20054;-92
2022/09/06 09:14:25;;;;;;;25.67;11.50;;;16.60;99.90;;;;;;4956086;29;20484;-92
2022/09/06 09:16:53;;;;;;;22.60;11.30;;;16.60;99.90;;;;;;4935097;29;20028;-92
2022/09/06 09:19:19;;;;;;;25.55;13.98;;;16.60;99.90;;;;;;4919659;29;20075;-92
2022/09/06 09:21:45;;;;;;;27.42;14.00;;;16.60;99.90;;;;;;4919526;29;20114;-93
2022/09/06 09:24:13;;;;;;;29.98;15.48;;;16.60;99.90;;;;;;4919461;29;20031;-91
2022/09/06 09:27:11;;;;;;;29.25;16.27;;;16.60;99.90;;;;;;4919452;29;20537;-92
2022/09/06 09:29:52;;;;;;;30.73;16.15;;;16.60;99.90;;;;;;4919447;29;20153;-93
2022/09/06 09:32:30;;;;;;;;;;;16.60;99.90;;;;;;4921458;29;20099;-93
2022/09/06 09:35:18;;;;;;;35.03;18.58;;;16.60;99.90;;;;;;4927494;29;20323;-92
2022/09/06 09:37:44;;;;;;;32.38;18.52;;;16.60;99.90;;;;;;4924419;29;20040;-92
2022/09/06 09:40:14;;;;;;;34.13;20.05;;;16.60;99.90;;;;;;4924885;29;20039;-93
2022/09/06 09:42:42;;;;;;;36.88;20.05;;;16.60;99.90;;;;;;4922076;29;20047;-91
2022/09/06 09:45:37;;;;;;;35.05;20.85;;;16.50;99.90;;;;;;4935110;29;20035;-93
2022/09/06 09:48:25;;;;;;;33.15;20.10;;;16.50;99.90;;;;;;4907403;29;20051;-92
2022/09/06 09:50:52;;;;;;;39.45;21.98;;;16.50;99.90;;;;;;4967794;28;20050;-94
2022/09/06 09:53:22;;;;;;;39.72;21.33;;;16.50;99.90;;;;;;4956457;28;20047;-95
2022/09/06 09:55:54;;;;;;;42.83;22.08;;;16.50;99.90;;;;;;4959734;28;20039;-94
2022/09/06 09:58:35;;;;;;;42.90;22.45;;;16.50;99.90;;;;;;4958944;28;20073;-95
2022/09/06 10:01:15;;;;;;;43.40;21.70;;;16.50;99.90;;;;;;4957167;28;20268;-94
2022/09/06 10:03:40;;;;;;;38.65;21.55;;;16.50;99.90;;;;;;4959277;28;20023;-93
2022/09/06 10:06:11;;;;;;;39.08;21.17;;;16.50;99.90;;;;;;4958694;28;20034;-94
2022/09/06 10:08:41;;;;;;;40.63;21.75;;;16.50;99.90;;;;;;4961470;28;20085;-95
2022/09/06 10:11:13;;;;;;;39.88;19.10;;;16.60;99.90;;;;;;4964718;28;20046;-93
2022/09/06 10:13:41;;;;;;;34.35;20.25;;;16.70;99.90;;;;;;4964779;28;20113;-93
2022/09/06 10:16:08;;;;;;;34.08;17.02;;;16.80;99.90;;;;;;4965998;28;20023;-94
2022/09/06 10:18:36;;;;;;;31.00;16.25;;;16.90;99.90;;;;;;4972838;28;20027;-93
2022/09/06 10:21:09;;;;;;;27.08;15.50;;;17.00;99.90;;;;;;4964718;28;20488;-95
2022/09/06 10:24:06;;;;;;;24.27;13.98;;;17.10;99.90;;;;;;4965349;28;20071;-94
2022/09/06 10:26:57;;;;;;;29.83;14.95;;;17.10;99.90;;;;;;4966765;28;20098;-95
2022/09/06 10:29:23;;;;;;;24.95;13.88;;;17.20;99.90;;;;;;4979207;28;20019;-94
2022/09/06 10:32:08;;;;;;;24.95;13.73;;;17.20;99.90;;;;;;4979837;28;20107;-95
2022/09/06 10:34:50;;;;;;;22.55;12.40;;;17.20;99.90;;;;;;4976808;28;20045;-94
2022/09/06 10:37:47;;;;;;;17.65;11.73;;;17.20;99.90;;;;;;4966143;28;20081;-94
2022/09/06 10:40:27;;;;;;;20.83;11.90;;;17.30;99.90;;;;;;4963862;28;20448;-94
2022/09/06 10:42:56;;;;;;;25.10;13.88;;;17.30;99.90;;;;;;4964227;28;20065;-96
2022/09/06 10:45:41;;;;;;;28.20;14.18;;;17.30;99.90;;;;;;4964584;28;20065;-95
2022/09/06 10:48:35;;;;;;;25.58;13.90;;;17.30;99.90;;;;;;4963369;28;20039;-94
2022/09/06 10:51:24;;;;;;;22.52;12.82;;;17.20;99.90;;;;;;4965698;28;20036;-95
2022/09/06 10:53:59;;;;;;;21.23;12.93;;;17.20;99.90;;;;;;4964902;28;20069;-93
2022/09/06 10:56:40;;;;;;;22.50;13.43;;;17.20;99.90;;;;;;4962764;28;20058;-94
2022/09/06 10:59:21;;;;;;;21.38;13.32;;;17.10;99.90;;;;;;4962768;28;20027;-94
2022/09/06 11:01:58;;;;;;;24.20;13.15;;;17.10;99.90;;;;;;4963084;28;20062;-94
2022/09/06 11:04:38;;;;;;;23.45;14.18;;;17.10;99.90;;;;;;4964924;28;20070;-95
2022/09/06 11:07:25;;;;;;;27.08;14.18;;;17.10;99.90;;;;;;4967825;28;20026;-96
2022/09/06 11:10:06;;;;;;;24.80;14.90;;;17.10;99.90;;;;;;4968719;28;20027;-95
2022/09/06 11:12:36;;;;;;;21.45;13.23;;;17.10;99.90;;;;;;4966482;28;20538;-95
2022/09/06 11:15:05;;;;;;;28.77;15.13;;;17.10;99.90;;;;;;4963052;28;20031;-96
2022/09/06 11:17:55;;;;;;;25.73;14.65;;;17.20;99.90;;;;;;4964492;28;20031;-96
2022/09/06 11:20:27;;;;;;;20.48;13.15;;;17.30;99.90;;;;;;4955497;28;20054;-95
2022/09/06 11:23:31;;;;;;;21.08;12.73;;;17.40;99.90;;;;;;4963906;28;20496;-95
2022/09/06 11:26:12;;;;;;;19.40;10.27;;;17.40;99.90;;;;;;4954531;28;20038;-93
2022/09/06 11:28:44;;;;;;;15.40;9.40;;;17.50;99.90;;;;;;4961959;28;20059;-92
2022/09/06 11:31:21;;;;;;;14.48;9.88;;;17.50;99.90;;;;;;4962575;28;20039;-94
2022/09/06 11:33:48;;;;;;;15.10;8.65;;;17.50;99.90;;;;;;4963752;28;20044;-94
2022/09/06 11:36:44;;;;;;;18.75;10.02;;;17.70;99.90;;;;;;4962993;28;20082;-93
2022/09/06 11:39:10;;;;;;;17.40;9.60;;;17.80;99.90;;;;;;4963076;28;20023;-94
2022/09/06 11:41:39;;;;;;;13.82;9.02;;;18.00;99.90;;;;;;4966009;28;20061;-95
2022/09/06 11:44:28;;;;;;;12.35;7.85;;;18.10;99.90;;;;;;4963993;28;20058;-95
2022/09/06 11:46:53;;;;;;;8.77;5.00;;;18.20;99.90;;;;;;4954362;28;20043;-94
2022/09/06 11:49:36;;;;;;;13.18;5.15;;;18.40;99.90;;;;;;4961282;28;20495;-94
2022/09/06 11:52:22;;;;;;;10.05;4.78;;;18.50;99.90;;;;;;4962340;28;20027;-95
2022/09/06 11:54:48;;;;;;;7.13;4.47;;;18.60;99.90;;;;;;4962385;28;20050;-94
2022/09/06 11:57:20;;;;;;;9.43;3.78;;;18.70;99.90;;;;;;4962694;28;20388;-93
2022/09/06 11:59:49;;;;;;;12.70;3.97;;;18.80;99.90;;;;;;4961358;28;20023;-94
2022/09/06 12:02:36;;;;;;;7.45;2.90;;;18.80;99.90;;;;;;4961875;28;20070;-96
2022/09/06 12:05:05;;;;;;;12.60;4.38;;;18.80;99.90;;;;;;4960737;28;20572;-94
2022/09/06 12:07:33;;;;;;;10.50;3.60;;;18.80;99.90;;;;;;4962078;28;20567;-94
2022/09/06 12:10:38;;;;;;;9.82;4.28;;;18.70;99.90;;;;;;4962715;28;20027;-94
2022/09/06 12:13:42;;;;;;;7.55;3.80;;;18.60;99.90;;;;;;4965692;28;20067;-94
2022/09/06 12:16:09;;;;;;;13.13;4.80;;;18.50;99.90;;;;;;4970964;28;20030;-94
2022/09/06 12:18:47;;;;;;;13.95;3.83;;;18.50;99.90;;;;;;4981599;28;20038;-94
2022/09/06 12:21:35;;;;;;;7.97;3.50;;;18.40;99.90;;;;;;4974367;28;20081;-95
2022/09/06 12:24:01;;;;;;;7.47;2.97;;;18.30;99.90;;;;;;4964604;28;20034;-94
2022/09/06 12:26:48;;;;;;;9.32;2.50;;;18.30;99.90;;;;;;4958698;28;20389;-94
2022/09/06 12:29:14;;;;;;;10.07;2.97;;;18.20;99.90;;;;;;4959223;28;20113;-94
2022/09/06 12:31:45;;;;;;;7.43;3.40;;;18.20;99.90;;;;;;4959095;28;20030;-93
2022/09/06 12:34:17;;;;;;;12.30;3.05;;;18.10;99.90;;;;;;4959956;28;20091;-93
2022/09/06 12:36:54;;;;;;;13.93;4.53;;;18.10;99.90;;;;;;4960605;28;20489;-95
2022/09/06 12:39:20;;;;;;;8.45;3.00;;;18.10;99.90;;;;;;4959991;28;20031;-94
2022/09/06 12:41:50;;;;;;;9.18;3.00;;;18.10;99.90;;;;;;4959175;28;20098;-95
2022/09/06 12:44:20;;;;;;;7.53;2.78;;;18.10;99.90;;;;;;4960179;28;20503;-94
2022/09/06 12:46:48;;;;;;;8.13;3.13;;;18.10;99.90;;;;;;4960941;28;20078;-94
2022/09/06 12:49:17;;;;;;;11.95;3.05;;;18.10;99.90;;;;;;4964015;28;20034;-94
2022/09/06 12:51:46;;;;;;;11.30;2.85;;;18.10;99.90;;;;;;4964496;28;20472;-95
2022/09/06 12:54:42;;;;;;;8.02;2.80;;;18.20;99.90;;;;;;4956622;28;20054;-94
2022/09/06 12:57:20;;;;;;;12.00;4.43;;;18.40;99.90;;;;;;4936708;29;20139;-93